sensor_id;sensor_type;location;lat;lon;timestamp;temperature;humidity
76857;DHT22;69705;44.686;37.628;2023-04-28T00:01:50;12.36;92.64
76857;DHT22;69705;44.686;37.628;2023-04-28T00:04:16;12.48;92.37
76857;DHT22;69705;44.686;37.628;2023-04-28T00:06:43;12.57;92.34
76857;DHT22;69705;44.686;37.628;2023-04-28T00:09:10;12.75;91.65
76857;DHT22;69705;44.686;37.628;2023-04-28T00:11:37;12.74;91.07
76857;DHT22;69705;44.686;37.628;2023-04-28T00:14:04;12.81;91.30
76857;DHT22;69705;44.686;37.628;2023-04-28T00:16:31;12.75;91.87
76857;DHT22;69705;44.686;37.628;2023-04-28T00:18:57;12.79;91.82
76857;DHT22;69705;44.686;37.628;2023-04-28T00:21:24;12.94;91.08
76857;DHT22;69705;44.686;37.628;2023-04-28T00:23:50;12.94;91.61
76857;DHT22;69705;44.686;37.628;2023-04-28T00:26:16;13.00;91.45
76857;DHT22;69705;44.686;37.628;2023-04-28T00:28:43;12.96;92.00
76857;DHT22;69705;44.686;37.628;2023-04-28T00:31:11;13.01;90.92
76857;DHT22;69705;44.686;37.628;2023-04-28T00:33:39;13.00;91.00
76857;DHT22;69705;44.686;37.628;2023-04-28T00:36:06;13.14;90.63
76857;DHT22;69705;44.686;37.628;2023-04-28T00:38:33;13.04;90.73
76857;DHT22;69705;44.686;37.628;2023-04-28T00:40:59;13.12;90.37
76857;DHT22;69705;44.686;37.628;2023-04-28T00:43:26;13.15;90.31
76857;DHT22;69705;44.686;37.628;2023-04-28T00:45:53;13.03;90.74
76857;DHT22;69705;44.686;37.628;2023-04-28T00:48:19;12.94;90.73
76857;DHT22;69705;44.686;37.628;2023-04-28T00:50:47;12.90;90.67
76857;DHT22;69705;44.686;37.628;2023-04-28T00:53:15;12.87;90.92
76857;DHT22;69705;44.686;37.628;2023-04-28T00:55:42;12.88;90.59
76857;DHT22;69705;44.686;37.628;2023-04-28T00:58:09;12.88;90.37
76857;DHT22;69705;44.686;37.628;2023-04-28T01:00:36;12.80;90.79
76857;DHT22;69705;44.686;37.628;2023-04-28T01:03:03;12.82;90.41
76857;DHT22;69705;44.686;37.628;2023-04-28T01:05:33;12.73;90.76
76857;DHT22;69705;44.686;37.628;2023-04-28T01:08:01;12.72;91.27
76857;DHT22;69705;44.686;37.628;2023-04-28T01:10:28;12.69;91.09
76857;DHT22;69705;44.686;37.628;2023-04-28T01:12:57;12.80;90.63
76857;DHT22;69705;44.686;37.628;2023-04-28T01:15:25;12.75;91.06
76857;DHT22;69705;44.686;37.628;2023-04-28T01:17:54;12.74;90.71
76857;DHT22;69705;44.686;37.628;2023-04-28T01:20:21;12.66;91.21
76857;DHT22;69705;44.686;37.628;2023-04-28T01:22:48;12.60;91.47
76857;DHT22;69705;44.686;37.628;2023-04-28T01:25:15;12.47;92.36
76857;DHT22;69705;44.686;37.628;2023-04-28T01:27:42;12.40;93.07
76857;DHT22;69705;44.686;37.628;2023-04-28T01:30:09;12.52;92.27
76857;DHT22;69705;44.686;37.628;2023-04-28T01:32:35;12.47;91.96
76857;DHT22;69705;44.686;37.628;2023-04-28T01:35:02;12.37;92.64
76857;DHT22;69705;44.686;37.628;2023-04-28T01:37:29;12.33;93.27
76857;DHT22;69705;44.686;37.628;2023-04-28T01:39:56;12.38;92.99
76857;DHT22;69705;44.686;37.628;2023-04-28T01:42:24;12.49;92.80
76857;DHT22;69705;44.686;37.628;2023-04-28T01:44:52;12.56;92.75
76857;DHT22;69705;44.686;37.628;2023-04-28T01:47:19;12.60;92.66
76857;DHT22;69705;44.686;37.628;2023-04-28T01:49:46;12.56;92.97
76857;DHT22;69705;44.686;37.628;2023-04-28T01:52:15;12.62;93.07
76857;DHT22;69705;44.686;37.628;2023-04-28T01:54:42;12.75;92.40
76857;DHT22;69705;44.686;37.628;2023-04-28T01:57:09;12.76;92.67
76857;DHT22;69705;44.686;37.628;2023-04-28T01:59:36;12.84;92.30
76857;DHT22;69705;44.686;37.628;2023-04-28T02:02:05;12.96;91.47
76857;DHT22;69705;44.686;37.628;2023-04-28T02:04:32;13.16;94.30
76857;DHT22;69705;44.686;37.628;2023-04-28T02:06:59;13.35;94.75
76857;DHT22;69705;44.686;37.628;2023-04-28T02:09:26;13.64;96.49
76857;DHT22;69705;44.686;37.628;2023-04-28T02:11:53;13.90;95.84
76857;DHT22;69705;44.686;37.628;2023-04-28T02:14:20;14.10;94.77
76857;DHT22;69705;44.686;37.628;2023-04-28T02:16:48;14.30;94.14
76857;DHT22;69705;44.686;37.628;2023-04-28T02:19:15;14.47;93.78
76857;DHT22;69705;44.686;37.628;2023-04-28T02:21:42;14.62;93.67
76857;DHT22;69705;44.686;37.628;2023-04-28T02:24:09;14.73;93.08
76857;DHT22;69705;44.686;37.628;2023-04-28T02:26:36;14.84;92.92
76857;DHT22;69705;44.686;37.628;2023-04-28T02:29:03;14.91;92.87
76857;DHT22;69705;44.686;37.628;2023-04-28T02:31:32;14.95;92.91
76857;DHT22;69705;44.686;37.628;2023-04-28T02:33:59;15.00;92.85
76857;DHT22;69705;44.686;37.628;2023-04-28T02:36:26;15.07;92.77
76857;DHT22;69705;44.686;37.628;2023-04-28T02:38:53;15.09;92.53
76857;DHT22;69705;44.686;37.628;2023-04-28T02:41:20;15.12;92.37
76857;DHT22;69705;44.686;37.628;2023-04-28T02:43:46;15.15;92.31
76857;DHT22;69705;44.686;37.628;2023-04-28T02:46:13;15.17;92.25
76857;DHT22;69705;44.686;37.628;2023-04-28T02:48:40;15.18;92.17
76857;DHT22;69705;44.686;37.628;2023-04-28T02:51:07;15.18;92.01
76857;DHT22;69705;44.686;37.628;2023-04-28T02:53:35;15.23;91.61
76857;DHT22;69705;44.686;37.628;2023-04-28T02:56:02;15.29;90.84
76857;DHT22;69705;44.686;37.628;2023-04-28T02:58:30;15.32;91.17
76857;DHT22;69705;44.686;37.628;2023-04-28T03:00:57;15.30;91.50
76857;DHT22;69705;44.686;37.628;2023-04-28T03:03:24;15.31;91.28
76857;DHT22;69705;44.686;37.628;2023-04-28T03:05:51;15.32;91.15
76857;DHT22;69705;44.686;37.628;2023-04-28T03:08:18;15.40;90.41
76857;DHT22;69705;44.686;37.628;2023-04-28T03:10:46;15.40;90.18
76857;DHT22;69705;44.686;37.628;2023-04-28T03:13:13;15.44;90.17
76857;DHT22;69705;44.686;37.628;2023-04-28T03:15:41;15.46;90.48
76857;DHT22;69705;44.686;37.628;2023-04-28T03:18:08;15.51;89.89
76857;DHT22;69705;44.686;37.628;2023-04-28T03:20:35;15.54;89.86
76857;DHT22;69705;44.686;37.628;2023-04-28T03:23:02;15.59;89.73
76857;DHT22;69705;44.686;37.628;2023-04-28T03:25:30;15.59;88.51
76857;DHT22;69705;44.686;37.628;2023-04-28T03:27:56;15.61;87.77
76857;DHT22;69705;44.686;37.628;2023-04-28T03:30:23;15.67;85.48
76857;DHT22;69705;44.686;37.628;2023-04-28T03:32:50;15.74;85.18
76857;DHT22;69705;44.686;37.628;2023-04-28T03:35:17;15.83;84.28
76857;DHT22;69705;44.686;37.628;2023-04-28T03:37:43;15.87;84.42
76857;DHT22;69705;44.686;37.628;2023-04-28T03:40:10;15.92;84.19
76857;DHT22;69705;44.686;37.628;2023-04-28T03:43:05;15.98;84.85
76857;DHT22;69705;44.686;37.628;2023-04-28T03:45:37;15.99;84.05
76857;DHT22;69705;44.686;37.628;2023-04-28T03:48:04;16.02;84.36
76857;DHT22;69705;44.686;37.628;2023-04-28T03:50:31;16.04;84.34
76857;DHT22;69705;44.686;37.628;2023-04-28T03:52:58;16.12;84.10
76857;DHT22;69705;44.686;37.628;2023-04-28T03:55:25;16.16;83.45
76857;DHT22;69705;44.686;37.628;2023-04-28T03:57:56;16.21;83.21
76857;DHT22;69705;44.686;37.628;2023-04-28T04:00:23;16.28;83.10
76857;DHT22;69705;44.686;37.628;2023-04-28T04:02:52;16.33;82.64
76857;DHT22;69705;44.686;37.628;2023-04-28T04:05:19;16.39;82.34
76857;DHT22;69705;44.686;37.628;2023-04-28T04:07:46;16.44;82.78
76857;DHT22;69705;44.686;37.628;2023-04-28T04:10:13;16.49;82.51
76857;DHT22;69705;44.686;37.628;2023-04-28T04:12:43;16.54;81.91
76857;DHT22;69705;44.686;37.628;2023-04-28T04:15:10;16.62;82.81
76857;DHT22;69705;44.686;37.628;2023-04-28T04:17:38;16.70;81.49
76857;DHT22;69705;44.686;37.628;2023-04-28T04:20:06;16.73;80.59
76857;DHT22;69705;44.686;37.628;2023-04-28T04:22:33;16.73;80.22
76857;DHT22;69705;44.686;37.628;2023-04-28T04:24:59;16.74;80.67
76857;DHT22;69705;44.686;37.628;2023-04-28T04:27:27;16.74;80.15
76857;DHT22;69705;44.686;37.628;2023-04-28T04:29:54;16.73;80.50
76857;DHT22;69705;44.686;37.628;2023-04-28T04:32:21;16.64;80.35
76857;DHT22;69705;44.686;37.628;2023-04-28T04:34:49;16.57;81.17
76857;DHT22;69705;44.686;37.628;2023-04-28T04:37:16;16.51;81.65
76857;DHT22;69705;44.686;37.628;2023-04-28T04:39:53;16.47;81.45
76857;DHT22;69705;44.686;37.628;2023-04-28T04:42:20;16.41;82.71
76857;DHT22;69705;44.686;37.628;2023-04-28T04:44:52;16.32;81.68
76857;DHT22;69705;44.686;37.628;2023-04-28T04:47:30;16.19;83.61
76857;DHT22;69705;44.686;37.628;2023-04-28T04:49:57;16.16;84.90
76857;DHT22;69705;44.686;37.628;2023-04-28T04:52:24;16.08;83.56
76857;DHT22;69705;44.686;37.628;2023-04-28T04:54:51;16.01;81.75
76857;DHT22;69705;44.686;37.628;2023-04-28T04:57:18;15.95;82.13
76857;DHT22;69705;44.686;37.628;2023-04-28T05:00:04;15.95;82.23
76857;DHT22;69705;44.686;37.628;2023-04-28T05:02:33;15.95;83.87
76857;DHT22;69705;44.686;37.628;2023-04-28T05:05:01;15.93;84.52
76857;DHT22;69705;44.686;37.628;2023-04-28T05:07:29;15.95;85.66
76857;DHT22;69705;44.686;37.628;2023-04-28T05:09:56;15.95;84.84
76857;DHT22;69705;44.686;37.628;2023-04-28T05:12:23;15.95;84.88
76857;DHT22;69705;44.686;37.628;2023-04-28T05:14:50;15.95;85.74
76857;DHT22;69705;44.686;37.628;2023-04-28T05:17:19;15.98;85.53
76857;DHT22;69705;44.686;37.628;2023-04-28T05:19:46;16.01;85.85
76857;DHT22;69705;44.686;37.628;2023-04-28T05:22:13;16.01;86.14
76857;DHT22;69705;44.686;37.628;2023-04-28T05:24:41;16.07;85.73
76857;DHT22;69705;44.686;37.628;2023-04-28T05:27:09;16.03;87.22
76857;DHT22;69705;44.686;37.628;2023-04-28T05:29:36;16.13;87.25
76857;DHT22;69705;44.686;37.628;2023-04-28T05:32:03;16.17;86.22
76857;DHT22;69705;44.686;37.628;2023-04-28T05:34:31;16.21;85.54
76857;DHT22;69705;44.686;37.628;2023-04-28T05:36:58;16.32;84.81
76857;DHT22;69705;44.686;37.628;2023-04-28T05:39:28;16.37;84.74
76857;DHT22;69705;44.686;37.628;2023-04-28T05:41:56;16.41;83.81
76857;DHT22;69705;44.686;37.628;2023-04-28T05:44:27;16.41;85.62
76857;DHT22;69705;44.686;37.628;2023-04-28T05:46:54;16.29;85.09
76857;DHT22;69705;44.686;37.628;2023-04-28T05:49:25;16.24;87.05
76857;DHT22;69705;44.686;37.628;2023-04-28T05:51:52;16.27;86.65
76857;DHT22;69705;44.686;37.628;2023-04-28T05:54:19;16.24;85.77
76857;DHT22;69705;44.686;37.628;2023-04-28T05:56:49;16.26;85.72
76857;DHT22;69705;44.686;37.628;2023-04-28T05:59:16;16.24;85.48
76857;DHT22;69705;44.686;37.628;2023-04-28T06:01:44;16.24;85.64
76857;DHT22;69705;44.686;37.628;2023-04-28T06:04:11;16.26;84.48
76857;DHT22;69705;44.686;37.628;2023-04-28T06:06:38;16.29;84.26
76857;DHT22;69705;44.686;37.628;2023-04-28T06:09:05;16.26;83.80
76857;DHT22;69705;44.686;37.628;2023-04-28T06:11:32;16.26;82.76
76857;DHT22;69705;44.686;37.628;2023-04-28T06:13:59;16.25;83.47
76857;DHT22;69705;44.686;37.628;2023-04-28T06:16:27;16.30;83.30
76857;DHT22;69705;44.686;37.628;2023-04-28T06:18:54;16.29;83.80
76857;DHT22;69705;44.686;37.628;2023-04-28T06:21:21;16.33;85.33
76857;DHT22;69705;44.686;37.628;2023-04-28T06:23:50;16.40;84.35
76857;DHT22;69705;44.686;37.628;2023-04-28T06:26:17;16.47;83.53
76857;DHT22;69705;44.686;37.628;2023-04-28T06:28:44;16.55;83.39
76857;DHT22;69705;44.686;37.628;2023-04-28T06:31:11;16.57;84.27
76857;DHT22;69705;44.686;37.628;2023-04-28T06:33:39;16.52;84.55
76857;DHT22;69705;44.686;37.628;2023-04-28T06:36:06;16.44;84.44
76857;DHT22;69705;44.686;37.628;2023-04-28T06:38:33;16.41;82.91
76857;DHT22;69705;44.686;37.628;2023-04-28T06:41:00;16.42;84.51
76857;DHT22;69705;44.686;37.628;2023-04-28T06:43:27;16.48;84.00
76857;DHT22;69705;44.686;37.628;2023-04-28T06:46:14;16.42;83.29
76857;DHT22;69705;44.686;37.628;2023-04-28T06:48:42;16.43;83.52
76857;DHT22;69705;44.686;37.628;2023-04-28T06:51:09;16.50;83.49
76857;DHT22;69705;44.686;37.628;2023-04-28T06:53:36;16.59;83.32
76857;DHT22;69705;44.686;37.628;2023-04-28T06:56:07;16.69;83.19
76857;DHT22;69705;44.686;37.628;2023-04-28T06:58:33;16.88;82.30
76857;DHT22;69705;44.686;37.628;2023-04-28T07:01:00;17.04;80.86
76857;DHT22;69705;44.686;37.628;2023-04-28T07:03:29;17.23;80.31
76857;DHT22;69705;44.686;37.628;2023-04-28T07:05:56;17.44;78.95
76857;DHT22;69705;44.686;37.628;2023-04-28T07:08:23;17.60;79.11
76857;DHT22;69705;44.686;37.628;2023-04-28T07:10:49;17.77;79.37
76857;DHT22;69705;44.686;37.628;2023-04-28T07:13:16;17.89;77.47
76857;DHT22;69705;44.686;37.628;2023-04-28T07:15:42;18.09;76.92
76857;DHT22;69705;44.686;37.628;2023-04-28T07:18:09;18.15;76.44
76857;DHT22;69705;44.686;37.628;2023-04-28T07:20:35;18.21;76.13
76857;DHT22;69705;44.686;37.628;2023-04-28T07:23:02;18.25;76.31
76857;DHT22;69705;44.686;37.628;2023-04-28T07:25:28;18.28;75.92
76857;DHT22;69705;44.686;37.628;2023-04-28T07:27:55;18.23;74.63
76857;DHT22;69705;44.686;37.628;2023-04-28T07:30:22;18.25;74.50
76857;DHT22;69705;44.686;37.628;2023-04-28T07:32:48;18.09;75.44
76857;DHT22;69705;44.686;37.628;2023-04-28T07:35:15;17.98;75.15
76857;DHT22;69705;44.686;37.628;2023-04-28T07:37:42;17.84;75.60
76857;DHT22;69705;44.686;37.628;2023-04-28T07:40:09;17.67;77.56
76857;DHT22;69705;44.686;37.628;2023-04-28T07:42:35;17.46;77.62
76857;DHT22;69705;44.686;37.628;2023-04-28T07:45:04;17.22;79.14
76857;DHT22;69705;44.686;37.628;2023-04-28T07:47:30;17.02;80.85
76857;DHT22;69705;44.686;37.628;2023-04-28T07:49:57;16.95;81.73
76857;DHT22;69705;44.686;37.628;2023-04-28T07:52:26;16.88;83.00
76857;DHT22;69705;44.686;37.628;2023-04-28T07:54:52;16.73;85.09
76857;DHT22;69705;44.686;37.628;2023-04-28T07:57:19;16.63;85.98
76857;DHT22;69705;44.686;37.628;2023-04-28T07:59:45;16.49;87.77
76857;DHT22;69705;44.686;37.628;2023-04-28T08:02:12;16.43;87.91
76857;DHT22;69705;44.686;37.628;2023-04-28T08:04:40;16.40;88.30
76857;DHT22;69705;44.686;37.628;2023-04-28T08:07:07;16.27;89.56
76857;DHT22;69705;44.686;37.628;2023-04-28T08:09:35;16.25;90.41
76857;DHT22;69705;44.686;37.628;2023-04-28T08:12:01;16.13;90.48
76857;DHT22;69705;44.686;37.628;2023-04-28T08:14:28;16.05;90.80
76857;DHT22;69705;44.686;37.628;2023-04-28T08:16:55;16.04;90.38
76857;DHT22;69705;44.686;37.628;2023-04-28T08:19:22;15.92;90.55
76857;DHT22;69705;44.686;37.628;2023-04-28T08:21:49;15.85;89.92
76857;DHT22;69705;44.686;37.628;2023-04-28T08:24:16;15.74;90.22
76857;DHT22;69705;44.686;37.628;2023-04-28T08:26:43;15.68;90.60
76857;DHT22;69705;44.686;37.628;2023-04-28T08:29:11;15.65;91.17
76857;DHT22;69705;44.686;37.628;2023-04-28T08:31:37;15.63;90.87
76857;DHT22;69705;44.686;37.628;2023-04-28T08:34:04;15.59;90.95
76857;DHT22;69705;44.686;37.628;2023-04-28T08:36:31;15.51;90.79
76857;DHT22;69705;44.686;37.628;2023-04-28T08:38:59;15.48;91.34
76857;DHT22;69705;44.686;37.628;2023-04-28T08:41:27;15.45;91.09
76857;DHT22;69705;44.686;37.628;2023-04-28T08:43:55;15.45;91.10
76857;DHT22;69705;44.686;37.628;2023-04-28T08:46:22;15.48;90.99
76857;DHT22;69705;44.686;37.628;2023-04-28T08:48:51;15.52;91.74
76857;DHT22;69705;44.686;37.628;2023-04-28T08:51:31;15.65;90.53
76857;DHT22;69705;44.686;37.628;2023-04-28T08:53:58;15.72;90.53
76857;DHT22;69705;44.686;37.628;2023-04-28T08:56:32;15.76;90.73
76857;DHT22;69705;44.686;37.628;2023-04-28T08:59:02;15.76;90.00
76857;DHT22;69705;44.686;37.628;2023-04-28T09:01:31;15.78;89.83
76857;DHT22;69705;44.686;37.628;2023-04-28T09:04:02;15.69;90.65
76857;DHT22;69705;44.686;37.628;2023-04-28T09:06:35;15.67;90.39
76857;DHT22;69705;44.686;37.628;2023-04-28T09:09:23;15.69;89.47
76857;DHT22;69705;44.686;37.628;2023-04-28T09:12:08;15.70;89.21
76857;DHT22;69705;44.686;37.628;2023-04-28T09:14:36;15.72;88.88
76857;DHT22;69705;44.686;37.628;2023-04-28T09:17:13;15.76;89.28
76857;DHT22;69705;44.686;37.628;2023-04-28T09:19:40;15.80;88.58
76857;DHT22;69705;44.686;37.628;2023-04-28T09:22:08;15.87;88.55
76857;DHT22;69705;44.686;37.628;2023-04-28T09:24:37;15.88;87.95
76857;DHT22;69705;44.686;37.628;2023-04-28T09:27:07;15.76;87.76
76857;DHT22;69705;44.686;37.628;2023-04-28T09:29:36;15.68;88.18
76857;DHT22;69705;44.686;37.628;2023-04-28T09:32:20;15.68;88.37
76857;DHT22;69705;44.686;37.628;2023-04-28T09:34:53;15.68;87.70
76857;DHT22;69705;44.686;37.628;2023-04-28T09:37:23;15.77;86.72
76857;DHT22;69705;44.686;37.628;2023-04-28T09:39:52;15.87;87.06
76857;DHT22;69705;44.686;37.628;2023-04-28T09:45:02;15.95;84.69
76857;DHT22;69705;44.686;37.628;2023-04-28T09:47:32;16.07;85.12
76857;DHT22;69705;44.686;37.628;2023-04-28T09:50:03;16.29;83.38
76857;DHT22;69705;44.686;37.628;2023-04-28T09:52:34;16.18;83.49
76857;DHT22;69705;44.686;37.628;2023-04-28T09:55:06;16.20;84.45
76857;DHT22;69705;44.686;37.628;2023-04-28T09:57:35;16.34;84.26
76857;DHT22;69705;44.686;37.628;2023-04-28T10:00:03;16.45;83.88
76857;DHT22;69705;44.686;37.628;2023-04-28T10:02:34;16.47;84.81
76857;DHT22;69705;44.686;37.628;2023-04-28T10:05:01;16.60;84.00
76857;DHT22;69705;44.686;37.628;2023-04-28T10:07:30;16.64;84.30
76857;DHT22;69705;44.686;37.628;2023-04-28T10:10:01;16.71;84.44
76857;DHT22;69705;44.686;37.628;2023-04-28T10:12:29;16.75;84.31
76857;DHT22;69705;44.686;37.628;2023-04-28T10:14:58;16.79;84.94
76857;DHT22;69705;44.686;37.628;2023-04-28T10:17:25;16.90;83.76
76857;DHT22;69705;44.686;37.628;2023-04-28T10:19:55;16.88;82.51
76857;DHT22;69705;44.686;37.628;2023-04-28T10:25:28;16.63;83.71
76857;DHT22;69705;44.686;37.628;2023-04-28T10:27:58;16.49;84.17
76857;DHT22;69705;44.686;37.628;2023-04-28T10:30:26;16.55;84.10
76857;DHT22;69705;44.686;37.628;2023-04-28T10:35:39;16.29;85.48
76857;DHT22;69705;44.686;37.628;2023-04-28T10:38:18;16.21;84.75
76857;DHT22;69705;44.686;37.628;2023-04-28T10:40:49;16.13;85.38
76857;DHT22;69705;44.686;37.628;2023-04-28T10:48:19;15.83;86.47
76857;DHT22;69705;44.686;37.628;2023-04-28T10:56:22;15.83;88.28
76857;DHT22;69705;44.686;37.628;2023-04-28T10:58:56;15.77;85.85
76857;DHT22;69705;44.686;37.628;2023-04-28T11:01:24;15.69;86.35
76857;DHT22;69705;44.686;37.628;2023-04-28T11:04:07;15.62;86.25
76857;DHT22;69705;44.686;37.628;2023-04-28T11:06:40;15.53;86.77
76857;DHT22;69705;44.686;37.628;2023-04-28T11:16:55;15.75;85.72
76857;DHT22;69705;44.686;37.628;2023-04-28T11:19:26;15.87;85.64
76857;DHT22;69705;44.686;37.628;2023-04-28T11:21:58;15.89;85.20
76857;DHT22;69705;44.686;37.628;2023-04-28T11:24:26;15.89;85.55
76857;DHT22;69705;44.686;37.628;2023-04-28T11:26:58;15.91;85.58
76857;DHT22;69705;44.686;37.628;2023-04-28T11:29:39;15.92;85.61
76857;DHT22;69705;44.686;37.628;2023-04-28T11:32:09;15.82;85.87
76857;DHT22;69705;44.686;37.628;2023-04-28T11:34:36;15.75;86.32
76857;DHT22;69705;44.686;37.628;2023-04-28T11:37:03;15.71;85.88
76857;DHT22;69705;44.686;37.628;2023-04-28T11:39:32;15.67;86.62
76857;DHT22;69705;44.686;37.628;2023-04-28T11:42:01;15.67;86.80
76857;DHT22;69705;44.686;37.628;2023-04-28T11:44:29;15.63;86.64
76857;DHT22;69705;44.686;37.628;2023-04-28T11:46:56;15.65;86.85
76857;DHT22;69705;44.686;37.628;2023-04-28T11:49:28;15.67;86.90
76857;DHT22;69705;44.686;37.628;2023-04-28T11:52:06;15.78;86.64
76857;DHT22;69705;44.686;37.628;2023-04-28T11:54:33;15.88;86.39
76857;DHT22;69705;44.686;37.628;2023-04-28T11:57:00;16.03;85.96
76857;DHT22;69705;44.686;37.628;2023-04-28T11:59:31;16.13;84.90
76857;DHT22;69705;44.686;37.628;2023-04-28T12:02:04;16.28;84.04
76857;DHT22;69705;44.686;37.628;2023-04-28T12:04:38;16.35;83.33
76857;DHT22;69705;44.686;37.628;2023-04-28T12:07:08;16.37;82.07
76857;DHT22;69705;44.686;37.628;2023-04-28T12:12:10;16.43;81.89
76857;DHT22;69705;44.686;37.628;2023-04-28T12:14:54;16.41;81.85
76857;DHT22;69705;44.686;37.628;2023-04-28T12:17:23;16.47;80.30
76857;DHT22;69705;44.686;37.628;2023-04-28T12:19:50;16.67;80.18
76857;DHT22;69705;44.686;37.628;2023-04-28T12:22:16;16.91;80.19
76857;DHT22;69705;44.686;37.628;2023-04-28T12:24:43;16.69;78.34
76857;DHT22;69705;44.686;37.628;2023-04-28T12:27:18;16.55;79.49
76857;DHT22;69705;44.686;37.628;2023-04-28T12:29:47;16.39;79.62
76857;DHT22;69705;44.686;37.628;2023-04-28T12:32:14;16.18;80.19
76857;DHT22;69705;44.686;37.628;2023-04-28T12:34:43;16.01;80.87
76857;DHT22;69705;44.686;37.628;2023-04-28T12:37:09;15.97;80.85
76857;DHT22;69705;44.686;37.628;2023-04-28T12:39:39;15.87;81.50
76857;DHT22;69705;44.686;37.628;2023-04-28T12:42:06;15.78;83.09
76857;DHT22;69705;44.686;37.628;2023-04-28T12:44:36;15.80;83.13
76857;DHT22;69705;44.686;37.628;2023-04-28T12:47:07;15.75;83.45
76857;DHT22;69705;44.686;37.628;2023-04-28T12:49:34;15.77;83.94
76857;DHT22;69705;44.686;37.628;2023-04-28T12:52:03;15.75;84.55
76857;DHT22;69705;44.686;37.628;2023-04-28T12:54:30;15.72;83.90
76857;DHT22;69705;44.686;37.628;2023-04-28T12:56:56;15.71;84.01
76857;DHT22;69705;44.686;37.628;2023-04-28T12:59:23;15.61;84.71
76857;DHT22;69705;44.686;37.628;2023-04-28T13:01:50;15.61;84.77
76857;DHT22;69705;44.686;37.628;2023-04-28T13:04:17;15.47;85.28
76857;DHT22;69705;44.686;37.628;2023-04-28T13:06:44;15.40;85.67
76857;DHT22;69705;44.686;37.628;2023-04-28T13:09:11;15.34;86.32
76857;DHT22;69705;44.686;37.628;2023-04-28T13:11:38;15.37;86.70
76857;DHT22;69705;44.686;37.628;2023-04-28T13:14:04;15.33;87.09
76857;DHT22;69705;44.686;37.628;2023-04-28T13:16:32;15.36;87.29
76857;DHT22;69705;44.686;37.628;2023-04-28T13:19:00;15.31;87.59
76857;DHT22;69705;44.686;37.628;2023-04-28T13:21:27;15.29;87.86
76857;DHT22;69705;44.686;37.628;2023-04-28T13:23:54;15.32;88.05
76857;DHT22;69705;44.686;37.628;2023-04-28T13:26:22;15.44;88.16
76857;DHT22;69705;44.686;37.628;2023-04-28T13:28:52;15.57;87.44
76857;DHT22;69705;44.686;37.628;2023-04-28T13:31:18;15.67;86.23
76857;DHT22;69705;44.686;37.628;2023-04-28T13:33:47;15.71;86.00
76857;DHT22;69705;44.686;37.628;2023-04-28T13:36:13;15.71;86.03
76857;DHT22;69705;44.686;37.628;2023-04-28T13:38:40;15.72;86.14
76857;DHT22;69705;44.686;37.628;2023-04-28T13:41:07;15.58;86.25
76857;DHT22;69705;44.686;37.628;2023-04-28T13:43:33;15.55;86.86
76857;DHT22;69705;44.686;37.628;2023-04-28T13:46:01;15.62;86.58
76857;DHT22;69705;44.686;37.628;2023-04-28T13:48:36;15.61;85.99
76857;DHT22;69705;44.686;37.628;2023-04-28T13:51:04;15.65;86.30
76857;DHT22;69705;44.686;37.628;2023-04-28T13:53:31;15.72;85.75
76857;DHT22;69705;44.686;37.628;2023-04-28T13:55:58;15.72;85.64
76857;DHT22;69705;44.686;37.628;2023-04-28T13:58:27;15.77;85.83
76857;DHT22;69705;44.686;37.628;2023-04-28T14:00:54;15.82;85.30
76857;DHT22;69705;44.686;37.628;2023-04-28T14:03:23;15.82;85.39
76857;DHT22;69705;44.686;37.628;2023-04-28T14:05:52;15.75;85.50
76857;DHT22;69705;44.686;37.628;2023-04-28T14:08:19;15.61;85.79
76857;DHT22;69705;44.686;37.628;2023-04-28T14:10:47;15.58;86.20
76857;DHT22;69705;44.686;37.628;2023-04-28T14:13:14;15.60;86.28
76857;DHT22;69705;44.686;37.628;2023-04-28T14:15:41;15.59;86.36
76857;DHT22;69705;44.686;37.628;2023-04-28T14:18:08;15.55;86.53
76857;DHT22;69705;44.686;37.628;2023-04-28T14:20:35;15.52;86.36
76857;DHT22;69705;44.686;37.628;2023-04-28T14:23:02;15.42;86.49
76857;DHT22;69705;44.686;37.628;2023-04-28T14:25:29;15.39;87.19
76857;DHT22;69705;44.686;37.628;2023-04-28T14:27:55;15.34;87.28
76857;DHT22;69705;44.686;37.628;2023-04-28T14:30:23;15.30;87.98
76857;DHT22;69705;44.686;37.628;2023-04-28T14:32:51;15.25;87.98
76857;DHT22;69705;44.686;37.628;2023-04-28T14:35:17;15.15;87.87
76857;DHT22;69705;44.686;37.628;2023-04-28T14:37:46;15.12;87.77
76857;DHT22;69705;44.686;37.628;2023-04-28T14:40:13;15.06;87.90
76857;DHT22;69705;44.686;37.628;2023-04-28T14:42:40;15.00;88.39
76857;DHT22;69705;44.686;37.628;2023-04-28T14:45:08;14.96;88.65
76857;DHT22;69705;44.686;37.628;2023-04-28T14:47:36;14.91;89.12
76857;DHT22;69705;44.686;37.628;2023-04-28T14:50:04;14.81;89.37
76857;DHT22;69705;44.686;37.628;2023-04-28T14:52:31;14.73;89.47
76857;DHT22;69705;44.686;37.628;2023-04-28T14:54:59;14.72;89.63
76857;DHT22;69705;44.686;37.628;2023-04-28T14:57:26;14.73;89.18
76857;DHT22;69705;44.686;37.628;2023-04-28T14:59:53;14.75;88.63
76857;DHT22;69705;44.686;37.628;2023-04-28T15:02:20;14.70;88.02
76857;DHT22;69705;44.686;37.628;2023-04-28T15:04:52;14.68;88.33
76857;DHT22;69705;44.686;37.628;2023-04-28T15:07:18;14.62;88.54
76857;DHT22;69705;44.686;37.628;2023-04-28T15:09:49;14.55;88.18
76857;DHT22;69705;44.686;37.628;2023-04-28T15:12:16;14.56;88.31
76857;DHT22;69705;44.686;37.628;2023-04-28T15:14:42;14.55;88.09
76857;DHT22;69705;44.686;37.628;2023-04-28T15:17:09;14.52;87.80
76857;DHT22;69705;44.686;37.628;2023-04-28T15:19:36;14.47;87.32
76857;DHT22;69705;44.686;37.628;2023-04-28T15:22:03;14.41;86.68
76857;DHT22;69705;44.686;37.628;2023-04-28T15:24:29;14.40;86.48
76857;DHT22;69705;44.686;37.628;2023-04-28T15:26:56;14.38;85.90
76857;DHT22;69705;44.686;37.628;2023-04-28T15:29:23;14.35;85.84
76857;DHT22;69705;44.686;37.628;2023-04-28T15:31:50;14.33;85.67
76857;DHT22;69705;44.686;37.628;2023-04-28T15:34:17;14.30;86.26
76857;DHT22;69705;44.686;37.628;2023-04-28T15:36:44;14.26;86.47
76857;DHT22;69705;44.686;37.628;2023-04-28T15:39:10;14.20;85.82
76857;DHT22;69705;44.686;37.628;2023-04-28T15:41:37;14.21;85.12
76857;DHT22;69705;44.686;37.628;2023-04-28T15:44:05;14.17;84.75
76857;DHT22;69705;44.686;37.628;2023-04-28T15:46:34;14.11;84.47
76857;DHT22;69705;44.686;37.628;2023-04-28T15:49:07;14.05;83.64
76857;DHT22;69705;44.686;37.628;2023-04-28T15:51:34;13.97;84.04